Latest Weather Observations for Roseworthy

IDS60901

Issued at 12:41 pm CDT Tuesday 21 November 2017 (issued every 10 minutes, with the page automatically refreshed every 10 minutes)

About weather observations | Map of Adelaide area stations | Latest observations for Adelaide area | Other Formats
Station Details ID: 023122 Name: ROSEWORTHY AWS Lat: -34.51 Lon: 138.68 Height: 65.0 m
Data from the previous 72 hours. | See also: Recent months at Roseworthy
Date/Time
CDT
Temp
°C
App
Temp
°C
Dew
Point
°C
Rel
Hum
%
Delta-T
°C
Wind Press
QNH
hPa
Press
MSL
hPa
Rain since
9am
mm
Dir  Spd
km/h
Gust
km/h
Spd
kts
Gust
kts
21/12:30pm 35.9 30.3 3.2 13 17.1 NNE 22 39 12 21 1013.3 1013.2 0.0
21/12:00pm 34.8 28.6 2.3 13 16.7 NNE 24 39 13 21 1013.7 1013.5 0.0
21/11:30am 35.2 29.3 3.7 14 16.6 NE 24 39 13 21 1014.1 1013.9 0.0
21/11:00am 34.4 28.1 4.0 15 16.0 NNE 26 39 14 21 1014.3 1014.1 0.0
21/10:36am 34.1 27.8 5.6 17 15.4 NNE 28 46 15 25 1014.3 1014.1 0.0
21/10:30am 34.2 27.5 5.7 17 15.4 NNE 30 46 16 25 1014.4 1014.2 0.0
21/10:00am 32.8 25.5 4.6 17 14.8 N 32 39 17 21 1014.5 1014.3 0.0
21/09:30am 32.2 25.4 4.9 18 14.4 NNE 30 43 16 23 1014.6 1014.4 0.0
21/09:00am 30.7 24.3 5.2 20 13.4 NNE 28 43 15 23 1014.7 1014.5 0.0
21/08:30am 29.5 24.2 6.8 24 12.2 NNE 24 32 13 17 1014.7 1014.5 0.0
21/08:00am 27.1 22.0 7.5 29 10.5 NE 24 32 13 17 1014.6 1014.4 0.0
21/07:30am 25.2 19.6 7.3 32 9.4 NE 26 33 14 18 1014.4 1014.2 0.0
21/07:00am 23.5 17.5 7.2 35 8.5 NE 28 33 15 18 1014.3 1014.1 0.0
21/06:30am 22.8 17.6 7.4 37 8.0 NE 24 35 13 19 1014.0 1013.8 0.0
21/06:00am 22.6 17.5 7.6 38 7.8 ENE 24 33 13 18 1013.8 1013.6 0.0
21/05:30am 22.4 17.0 7.8 39 7.6 ENE 26 33 14 18 1013.5 1013.3 0.0
21/05:00am 22.7 17.6 7.7 38 7.9 NE 24 33 13 18 1013.1 1013.0 0.0
21/04:30am 22.7 18.0 7.7 38 7.9 ENE 22 30 12 16 1013.1 1013.0 0.0
21/04:00am 22.0 17.9 8.5 42 7.1 ENE 20 26 11 14 1013.1 1013.0 0.0
21/03:30am 20.6 17.3 7.9 44 6.6 NE 15 19 8 10 1013.3 1013.2 0.0
21/03:00am 22.3 18.1 8.1 40 7.5 ENE 20 26 11 14 1013.2 1013.1 0.0
21/02:30am 22.2 18.5 8.0 40 7.5 NE 17 22 9 12 1013.1 1013.0 0.0
21/02:00am 22.7 18.7 8.4 40 7.6 ENE 19 24 10 13 1013.0 1012.9 0.0
21/01:30am 21.9 18.4 8.8 43 7.0 ENE 17 24 9 13 1013.1 1013.0 0.0
21/01:00am 21.3 18.3 9.2 46 6.5 ENE 15 17 8 9 1013.3 1013.2 0.0
21/12:30am 21.1 18.0 9.0 46 6.4 NE 15 17 8 9 1013.3 1013.2 0.0
21/12:00am 20.9 17.5 9.2 47 6.2 ENE 17 19 9 10 1013.5 1013.3 0.0
 
Date/Time
CDT
Temp
°C
App
Temp
°C
Dew
Point
°C
Rel
Hum
%
Delta-T
°C
Wind Press
QNH
hPa
Press
MSL
hPa
Rain since
9am
mm
Dir  Spd
km/h
Gust
km/h
Spd
kts
Gust
kts
20/11:30pm 18.9 16.6 9.1 53 5.2 ENE 11 13 6 7 1013.5 1013.3 0.0
20/11:00pm 21.5 18.7 8.7 44 6.8 ENE 13 17 7 9 1013.5 1013.3 0.0
20/10:30pm 21.3 18.5 8.6 44 6.7 E 13 17 7 9 1013.5 1013.3 0.0
20/10:00pm 21.8 18.6 8.3 42 7.1 ENE 15 17 8 9 1013.3 1013.2 0.0
20/09:30pm 22.2 18.6 8.3 41 7.3 ENE 17 19 9 10 1013.1 1013.0 0.0
20/09:00pm 22.1 19.1 7.5 39 7.6 ENE 13 15 7 8 1012.7 1012.6 0.0
20/08:30pm 23.6 20.3 6.4 33 8.8 ENE 13 15 7 8 1012.4 1012.3 0.0
20/08:00pm 26.4 22.9 5.4 26 10.8 ENE 13 15 7 8 1012.1 1012.0 0.0
20/07:30pm 30.6 26.0 5.8 21 13.2 NE 19 26 10 14 1011.9 1011.8 0.0
20/07:00pm 32.8 27.6 5.4 18 14.6 ENE 22 30 12 16 1011.6 1011.5 0.0
20/06:30pm 32.4 27.6 5.8 19 14.3 NE 20 32 11 17 1011.3 1011.2 0.0
20/06:00pm 34.4 28.5 5.8 17 15.5 ENE 26 41 14 22 1011.2 1011.1 0.0
20/05:30pm 33.6 28.1 6.0 18 14.9 NE 24 32 13 17 1011.2 1011.1 0.0
20/05:00pm 35.8 30.2 7.0 17 16.0 ENE 26 43 14 23 1011.2 1011.1 0.0
20/04:30pm 35.0 30.2 5.4 16 16.0 NE 20 30 11 16 1011.4 1011.3 0.0
20/04:00pm 36.7 31.8 6.8 16 16.6 ENE 22 35 12 19 1011.5 1011.4 0.0
20/03:30pm 35.3 29.4 7.4 18 15.6 ENE 28 39 15 21 1011.8 1011.7 0.0
20/03:00pm 36.2 30.4 6.4 16 16.4 NE 26 39 14 21 1012.1 1012.0 0.0
20/02:30pm 36.5 30.2 7.5 17 16.3 ENE 30 43 16 23 1012.4 1012.3 0.0
20/02:00pm 33.7 29.0 7.6 20 14.5 ENE 22 39 12 21 1012.7 1012.6 0.0
20/01:30pm 34.7 29.4 8.4 20 14.9 NE 26 39 14 21 1013.1 1013.0 0.0
20/01:00pm 34.8 29.1 8.5 20 14.9 NE 28 43 15 23 1013.6 1013.4 0.0
20/12:30pm 34.6 28.7 7.6 19 15.1 NE 28 41 15 22 1013.9 1013.7 0.0
20/12:00pm 34.2 28.0 8.0 20 14.7 NE 30 44 16 24 1014.2 1014.0 0.0
20/11:30am 33.5 27.5 10.2 24 13.5 ENE 32 44 17 24 1014.6 1014.4 0.0
20/11:00am 32.9 26.6 9.0 23 13.5 NE 32 43 17 23 1014.8 1014.6 0.0
20/10:30am 32.3 26.4 10.4 26 12.6 NE 32 44 17 24 1014.9 1014.7 0.0
20/10:00am 29.5 24.0 10.6 31 10.8 NE 30 43 16 23 1015.0 1014.8 0.0
20/09:30am 28.2 22.0 9.9 32 10.3 NE 33 50 18 27 1015.2 1015.0 0.0
20/09:00am 27.5 20.3 10.7 35 9.5 NE 39 48 21 26 1015.2 1015.0 0.0
20/08:30am 26.6 20.1 10.3 36 9.1 NE 35 48 19 26 1015.3 1015.1 0.0
20/08:00am 25.4 19.4 10.8 40 8.2 ENE 33 46 18 25 1015.2 1015.0 0.0
20/07:30am 24.2 19.2 10.8 43 7.5 ENE 28 39 15 21 1015.1 1014.9 0.0
20/07:00am 23.6 19.3 10.6 44 7.2 ENE 24 33 13 18 1014.9 1014.7 0.0
20/06:30am 23.0 19.5 10.8 46 6.8 ENE 20 26 11 14 1014.7 1014.5 0.0
20/06:00am 23.2 19.2 10.6 45 7.0 NE 22 30 12 16 1014.4 1014.2 0.0
20/05:30am 23.3 19.3 10.4 44 7.1 ENE 22 32 12 17 1014.1 1013.9 0.0
20/05:00am 23.2 19.2 10.6 45 7.0 ENE 22 32 12 17 1013.9 1013.7 0.0
20/04:30am 23.6 19.2 10.3 43 7.3 ENE 24 37 13 20 1013.7 1013.5 0.0
20/04:00am 24.2 19.7 10.1 41 7.8 NE 24 33 13 18 1013.5 1013.3 0.0
20/03:30am 24.1 20.0 10.0 41 7.8 ENE 22 30 12 16 1013.5 1013.3 0.0
20/03:00am 24.2 19.3 9.8 40 7.9 ENE 26 39 14 21 1013.3 1013.2 0.0
20/02:30am 24.0 19.4 9.6 40 7.9 ENE 24 32 13 17 1013.3 1013.2 0.0
20/02:00am 24.2 19.6 9.8 40 7.9 ENE 24 33 13 18 1013.2 1013.1 0.0
20/01:30am 23.2 19.5 9.6 42 7.4 ENE 19 26 10 14 1013.2 1013.1 0.0
20/01:00am 23.6 19.1 9.9 42 7.5 ENE 24 32 13 17 1013.1 1013.0 0.0
20/12:30am 23.3 19.6 10.0 43 7.3 ENE 20 28 11 15 1013.2 1013.1 0.0
20/12:00am 23.4 19.7 10.1 43 7.3 ENE 20 26 11 14 1013.2 1013.1 0.0
 
Date/Time
CDT
Temp
°C
App
Temp
°C
Dew
Point
°C
Rel
Hum
%
Delta-T
°C
Wind Press
QNH
hPa
Press
MSL
hPa
Rain since
9am
mm
Dir  Spd
km/h
Gust
km/h
Spd
kts
Gust
kts
19/11:30pm 23.1 19.6 10.2 44 7.1 ENE 19 24 10 13 1013.3 1013.2 0.0
19/11:00pm 23.3 20.1 10.0 43 7.3 ENE 17 22 9 12 1013.1 1013.0 0.0
19/10:30pm 23.8 20.2 10.5 43 7.4 E 20 28 11 15 1013.0 1012.9 0.0
19/10:00pm 24.0 20.6 10.7 43 7.4 E 19 24 10 13 1012.7 1012.6 0.0
19/09:30pm 23.9 20.9 10.6 43 7.4 E 17 20 9 11 1012.5 1012.4 0.0
19/09:00pm 24.5 21.3 10.0 40 8.0 E 17 22 9 12 1012.4 1012.3 0.0
19/08:30pm 24.5 21.5 9.3 38 8.3 E 15 17 8 9 1012.3 1012.2 0.0
19/08:00pm 26.2 23.4 8.7 33 9.5 E 13 17 7 9 1012.3 1012.2 0.0
19/07:30pm 28.4 25.1 8.1 28 11.1 E 15 19 8 10 1012.0 1011.9 0.0
19/07:00pm 29.6 25.4 7.5 25 12.0 ENE 19 26 10 14 1011.8 1011.7 0.0
19/06:30pm 30.6 25.5 7.7 24 12.5 E 24 33 13 18 1011.4 1011.3 0.0
19/06:00pm 31.8 26.9 6.8 21 13.6 ENE 22 37 12 20 1011.4 1011.3 0.0
19/05:30pm 32.1 26.8 7.0 21 13.7 NE 24 41 13 22 1011.5 1011.4 0.0
19/05:00pm 32.4 27.4 6.6 20 14.0 ENE 22 37 12 20 1011.4 1011.3 0.0
19/04:30pm 32.3 26.9 6.5 20 14.0 ENE 24 37 13 20 1011.4 1011.3 0.0
19/04:00pm 32.4 26.9 5.8 19 14.3 NE 24 33 13 18 1011.8 1011.7 0.0
19/03:30pm 32.8 28.3 6.2 19 14.4 ENE 19 41 10 22 1012.1 1012.0 0.0
19/03:00pm 30.8 26.4 7.3 23 12.8 ENE 20 33 11 18 1012.7 1012.6 0.0
19/02:30pm 30.6 25.7 7.1 23 12.7 ENE 22 39 12 21 1013.2 1013.1 0.0
19/02:00pm 32.4 28.4 9.2 24 13.1 NE 20 35 11 19 1013.7 1013.5 0.0
19/01:30pm 31.7 27.2 8.7 24 12.9 ENE 22 39 12 21 1014.0 1013.8 0.0
19/01:00pm 30.2 26.4 7.4 24 12.4 ENE 17 30 9 16 1014.2 1014.0 0.0
19/12:30pm 31.0 26.7 9.3 26 12.2 ENE 22 32 12 17 1014.5 1014.3 0.0
19/12:00pm 29.6 24.3 8.6 27 11.6 ENE 26 39 14 21 1014.7 1014.5 0.0
19/11:30am 29.2 24.5 10.8 32 10.5 E 26 37 14 20 1014.9 1014.7 0.0
19/11:00am 27.8 23.2 10.9 35 9.6 E 26 39 14 21 1015.0 1014.8 0.0
19/10:30am 27.3 22.6 12.1 39 8.8 ENE 28 37 15 20 1014.8 1014.6 0.0
19/10:00am 26.2 21.7 12.6 43 7.9 E 28 37 15 20 1015.0 1014.8 0.0
19/09:30am 25.0 20.7 13.2 48 6.9 ENE 28 41 15 22 1015.1 1014.9 0.0
19/09:00am 23.9 19.6 13.2 51 6.2 E 28 35 15 19 1015.0 1014.8 0.0
19/08:30am 22.4 17.7 12.1 52 5.8 E 28 35 15 19 1014.6 1014.4 0.0
19/08:00am 20.9 17.8 13.4 62 4.3 E 22 33 12 18 1014.4 1014.2 0.0
19/07:30am 18.7 17.1 13.8 73 2.8 E 15 20 8 11 1014.2 1014.0 0.0
19/07:00am 15.9 15.3 13.6 86 1.3 ENE 9 11 5 6 1014.1 1013.9 0.0
19/06:30am 12.4 11.1 11.3 93 0.6 E 9 11 5 6 1013.7 1013.5 0.0
19/06:00am 11.7 10.8 10.6 93 0.6 NW 6 9 3 5 1013.6 1013.4 0.0
19/05:30am 11.4 10.1 10.0 91 0.7 ENE 7 11 4 6 1013.3 1013.2 0.0
19/05:00am 11.5 8.9 10.6 94 0.5 E 15 15 8 8 1013.3 1013.2 0.0
19/04:30am 9.6 7.9 8.2 91 0.7 ENE 7 9 4 5 1013.8 1013.6 0.0
19/04:00am 9.9 8.2 8.3 90 0.8 NNE 7 11 4 6 1013.8 1013.6 0.0
19/03:30am 10.9 9.4 9.3 90 0.8 NNW 7 11 4 6 1013.7 1013.5 0.0
19/03:00am 11.9 10.8 10.1 89 0.9 NE 6 9 3 5 1013.5 1013.3 0.0
19/02:30am 13.5 11.6 11.7 89 1.0 E 13 15 7 8 1013.6 1013.4 0.0
19/02:00am 13.5 12.2 11.2 86 1.2 E 9 13 5 7 1013.7 1013.5 0.0
19/01:30am 13.2 11.5 11.3 88 1.0 E 11 13 6 7 1014.0 1013.8 0.0
19/01:00am 14.5 13.3 11.7 83 1.5 ESE 9 13 5 7 1014.4 1014.2 0.0
19/12:30am 15.5 13.8 12.3 81 1.8 ESE 13 17 7 9 1014.5 1014.3 0.0
19/12:00am 15.6 13.5 12.5 82 1.7 ESE 15 20 8 11 1014.5 1014.3 0.0
 
Date/Time
CDT
Temp
°C
App
Temp
°C
Dew
Point
°C
Rel
Hum
%
Delta-T
°C
Wind Press
QNH
hPa
Press
MSL
hPa
Rain since
9am
mm
Dir  Spd
km/h
Gust
km/h
Spd
kts
Gust
kts
18/11:30pm 15.1 14.1 12.2 83 1.6 ESE 9 13 5 7 1014.7 1014.5 0.0
18/11:00pm 15.9 15.0 12.5 80 1.9 ESE 9 13 5 7 1014.8 1014.6 0.0
18/10:30pm 16.6 15.4 12.8 78 2.1 ESE 11 15 6 8 1014.9 1014.7 0.0
18/10:00pm 16.3 15.8 12.7 79 2.0 ESE 7 9 4 5 1014.8 1014.6 0.0
18/09:30pm 15.4 15.2 11.8 79 2.0 ESE 4 7 2 4 1014.5 1014.3 0.0
18/09:00pm 16.9 16.6 12.6 76 2.4 SSE 6 9 3 5 1014.1 1013.9 0.0
18/08:30pm 17.6 17.1 12.7 73 2.7 SSE 7 9 4 5 1013.8 1013.6 0.0
18/08:00pm 18.9 17.8 13.1 69 3.3 SSW 11 13 6 7 1013.6 1013.4 0.0
18/07:30pm 20.1 17.7 12.8 63 4.1 SSW 17 22 9 12 1013.5 1013.3 0.0
18/07:00pm 20.7 18.5 13.4 63 4.2 SSW 17 24 9 13 1013.3 1013.2 0.0
18/06:30pm 21.4 18.9 13.6 61 4.5 SW 19 28 10 15 1013.5 1013.3 0.0
18/06:00pm 21.9 18.8 13.5 59 4.9 WSW 22 32 12 17 1013.3 1013.2 0.0
18/05:30pm 23.0 20.3 12.9 53 5.8 SSW 19 26 10 14 1013.2 1013.1 0.0
18/05:00pm 23.0 19.7 12.9 53 5.8 SSW 22 32 12 17 1013.3 1013.2 0.0
18/04:30pm 24.4 21.3 13.3 50 6.5 SSW 22 32 12 17 1013.5 1013.3 0.0
18/04:00pm 24.2 21.0 13.1 50 6.4 SW 22 33 12 18 1013.7 1013.5 0.0
18/03:30pm 23.4 21.0 10.1 43 7.3 SSE 13 24 7 13 1013.9 1013.7 0.0
18/03:00pm 25.1 22.7 11.3 42 7.8 SE 15 26 8 14 1014.2 1014.0 0.0
18/02:30pm 23.2 20.8 9.9 43 7.3 SE 13 20 7 11 1014.5 1014.3 0.0
18/02:00pm 23.6 21.9 11.3 46 6.9 S 11 20 6 11 1014.7 1014.5 0.0
18/01:30pm 23.6 22.3 12.6 50 6.3 SSE 11 24 6 13 1015.0 1014.8 0.0
18/01:00pm 21.8 20.4 10.9 50 6.0 SE 9 15 5 8 1015.5 1015.3 0.0

Latest Capital City Observations: Canberra | Sydney | Melbourne | Brisbane | Adelaide | Perth | Hobart | Darwin

Other Formats:

Comma delimited format used in spreadsheet applications
http://www.bom.gov.au/fwo/IDS60901/IDS60901.95671.axf

JavaScript Object Notation format (JSON) in row-major order
http://www.bom.gov.au/fwo/IDS60901/IDS60901.95671.json